Terminal Aerodrome Forecast
Issued by NWS Cleveland, OH

Home | Current Version | Previous Version | Text Only | Print | Product List | Glossary Off
Versions: 1 2 3 4 5 6 7 8 9 10 11 12 13 14 15 16 17 18 19 20 21 22 23

000
FTUS41 KCLE 211800 AAA
TAFYNG
TAF AMD
KYNG 211814Z 2118/2218 21010G15KT P6SM BKN250
     FM220200 22007KT P6SM OVC100
     FM220700 22008KT P6SM OVC050
     FM220800 22008KT P6SM -SHRA OVC025
     FM220900 23008KT P6SM -SHRA OVC015
     FM221200 28008KT P6SM OVC007
     FM221500 31012KT P6SM OVC015
     FM221700 31015G25KT P6SM SCT250=

USA.gov is the U.S. government's official web portal to all federal, state and local government web resources and services.